sensor_id;sensor_type;location;lat;lon;timestamp;pressure;altitude;pressure_sealevel;temperature;humidity
25420;BME280;13354;48.174;11.566;2023-03-18T00:00:37;95272.44;;;9.64;67.48
25420;BME280;13354;48.174;11.566;2023-03-18T00:03:03;95273.47;;;9.63;67.36
25420;BME280;13354;48.174;11.566;2023-03-18T00:05:28;95278.66;;;9.50;68.43
25420;BME280;13354;48.174;11.566;2023-03-18T00:07:55;95280.75;;;9.61;67.50
25420;BME280;13354;48.174;11.566;2023-03-18T00:10:20;95281.50;;;9.48;68.17
25420;BME280;13354;48.174;11.566;2023-03-18T00:12:45;95285.00;;;9.55;67.82
25420;BME280;13354;48.174;11.566;2023-03-18T00:15:11;95281.16;;;9.58;67.58
25420;BME280;13354;48.174;11.566;2023-03-18T00:17:37;95283.78;;;9.51;67.81
25420;BME280;13354;48.174;11.566;2023-03-18T00:20:04;95289.28;;;9.56;67.41
25420;BME280;13354;48.174;11.566;2023-03-18T00:22:33;95282.53;;;9.47;67.58
25420;BME280;13354;48.174;11.566;2023-03-18T00:24:58;95282.91;;;9.44;68.01
25420;BME280;13354;48.174;11.566;2023-03-18T00:27:23;95283.53;;;9.46;67.78
25420;BME280;13354;48.174;11.566;2023-03-18T00:29:49;95289.22;;;9.50;67.29
25420;BME280;13354;48.174;11.566;2023-03-18T00:32:14;95295.78;;;9.54;67.44
25420;BME280;13354;48.174;11.566;2023-03-18T00:34:39;95297.03;;;9.58;66.80
25420;BME280;13354;48.174;11.566;2023-03-18T00:37:04;95300.88;;;9.55;67.06
25420;BME280;13354;48.174;11.566;2023-03-18T00:39:30;95303.28;;;9.50;67.08
25420;BME280;13354;48.174;11.566;2023-03-18T00:41:56;95305.19;;;9.63;66.09
25420;BME280;13354;48.174;11.566;2023-03-18T00:44:22;95305.56;;;9.60;66.31
25420;BME280;13354;48.174;11.566;2023-03-18T00:46:49;95311.81;;;9.52;66.66
25420;BME280;13354;48.174;11.566;2023-03-18T00:49:14;95308.78;;;9.55;66.38
25420;BME280;13354;48.174;11.566;2023-03-18T00:51:41;95310.78;;;9.47;66.79
25420;BME280;13354;48.174;11.566;2023-03-18T00:54:07;95313.06;;;9.56;66.37
25420;BME280;13354;48.174;11.566;2023-03-18T00:56:34;95312.06;;;9.57;66.02
25420;BME280;13354;48.174;11.566;2023-03-18T00:59:00;95314.88;;;9.56;66.10
25420;BME280;13354;48.174;11.566;2023-03-18T01:01:27;95311.66;;;9.54;66.13
25420;BME280;13354;48.174;11.566;2023-03-18T01:03:52;95310.16;;;9.44;66.37
25420;BME280;13354;48.174;11.566;2023-03-18T01:06:20;95312.19;;;9.49;66.16
25420;BME280;13354;48.174;11.566;2023-03-18T01:08:47;95309.72;;;9.41;66.76
25420;BME280;13354;48.174;11.566;2023-03-18T01:11:12;95309.13;;;9.39;66.55
25420;BME280;13354;48.174;11.566;2023-03-18T01:13:37;95310.53;;;9.41;66.74
25420;BME280;13354;48.174;11.566;2023-03-18T01:16:04;95305.50;;;9.47;65.92
25420;BME280;13354;48.174;11.566;2023-03-18T01:18:30;95308.38;;;9.52;65.41
25420;BME280;13354;48.174;11.566;2023-03-18T01:20:56;95306.69;;;9.44;65.57
25420;BME280;13354;48.174;11.566;2023-03-18T01:23:21;95300.00;;;9.48;65.41
25420;BME280;13354;48.174;11.566;2023-03-18T01:25:46;95306.69;;;9.44;66.09
25420;BME280;13354;48.174;11.566;2023-03-18T01:28:12;95300.59;;;9.43;65.75
25420;BME280;13354;48.174;11.566;2023-03-18T01:30:38;95300.38;;;9.45;65.60
25420;BME280;13354;48.174;11.566;2023-03-18T01:33:03;95307.13;;;9.48;65.36
25420;BME280;13354;48.174;11.566;2023-03-18T01:35:30;95297.56;;;9.47;65.15
25420;BME280;13354;48.174;11.566;2023-03-18T01:37:56;95291.31;;;9.54;65.05
25420;BME280;13354;48.174;11.566;2023-03-18T01:40:22;95297.38;;;9.48;65.15
25420;BME280;13354;48.174;11.566;2023-03-18T01:42:52;95301.19;;;9.46;65.61
25420;BME280;13354;48.174;11.566;2023-03-18T01:45:36;95302.00;;;9.46;65.33
25420;BME280;13354;48.174;11.566;2023-03-18T01:48:01;95303.66;;;9.47;65.01
25420;BME280;13354;48.174;11.566;2023-03-18T01:50:27;95303.66;;;9.47;65.14
25420;BME280;13354;48.174;11.566;2023-03-18T01:52:55;95300.38;;;9.45;64.85
25420;BME280;13354;48.174;11.566;2023-03-18T01:55:23;95313.44;;;9.47;64.75
25420;BME280;13354;48.174;11.566;2023-03-18T01:57:49;95315.22;;;9.46;64.72
25420;BME280;13354;48.174;11.566;2023-03-18T02:00:15;95310.78;;;9.47;64.65
25420;BME280;13354;48.174;11.566;2023-03-18T02:02:41;95312.38;;;9.41;64.47
25420;BME280;13354;48.174;11.566;2023-03-18T02:05:08;95310.78;;;9.47;63.48
25420;BME280;13354;48.174;11.566;2023-03-18T02:07:35;95310.78;;;9.47;63.28
25420;BME280;13354;48.174;11.566;2023-03-18T02:10:02;95313.56;;;9.38;63.78
25420;BME280;13354;48.174;11.566;2023-03-18T02:12:32;95317.31;;;9.51;63.56
25420;BME280;13354;48.174;11.566;2023-03-18T02:14:59;95318.50;;;9.48;63.57
25420;BME280;13354;48.174;11.566;2023-03-18T02:17:25;95327.63;;;9.46;63.47
25420;BME280;13354;48.174;11.566;2023-03-18T02:19:56;95313.59;;;9.45;63.52
25420;BME280;13354;48.174;11.566;2023-03-18T02:22:23;95317.03;;;9.39;63.88
25420;BME280;13354;48.174;11.566;2023-03-18T02:24:59;95325.56;;;9.41;63.90
25420;BME280;13354;48.174;11.566;2023-03-18T02:27:27;95324.75;;;9.40;64.06
25420;BME280;13354;48.174;11.566;2023-03-18T02:29:55;95326.22;;;9.50;63.84
25420;BME280;13354;48.174;11.566;2023-03-18T02:32:24;95324.00;;;9.47;63.90
25420;BME280;13354;48.174;11.566;2023-03-18T02:34:50;95326.06;;;9.51;63.41
25420;BME280;13354;48.174;11.566;2023-03-18T02:37:15;95331.19;;;9.59;62.92
25420;BME280;13354;48.174;11.566;2023-03-18T02:39:40;95324.91;;;9.67;62.80
25420;BME280;13354;48.174;11.566;2023-03-18T02:42:06;95329.97;;;9.62;63.14
25420;BME280;13354;48.174;11.566;2023-03-18T02:44:31;95335.00;;;9.57;63.13
25420;BME280;13354;48.174;11.566;2023-03-18T02:46:58;95336.03;;;9.56;63.28
25420;BME280;13354;48.174;11.566;2023-03-18T02:49:25;95337.44;;;9.52;63.13
25420;BME280;13354;48.174;11.566;2023-03-18T02:51:51;95328.75;;;9.64;62.51
25420;BME280;13354;48.174;11.566;2023-03-18T02:54:21;95335.97;;;9.49;62.40
25420;BME280;13354;48.174;11.566;2023-03-18T02:56:47;95345.13;;;9.47;62.08
25420;BME280;13354;48.174;11.566;2023-03-18T02:59:13;95347.41;;;9.56;61.32
25420;BME280;13354;48.174;11.566;2023-03-18T03:01:39;95345.16;;;9.53;61.01
25420;BME280;13354;48.174;11.566;2023-03-18T03:04:04;95349.03;;;9.51;61.38
25420;BME280;13354;48.174;11.566;2023-03-18T03:06:30;95345.63;;;9.63;61.14
25420;BME280;13354;48.174;11.566;2023-03-18T03:08:56;95346.97;;;9.53;60.87
25420;BME280;13354;48.174;11.566;2023-03-18T03:11:21;95352.28;;;9.53;60.94
25420;BME280;13354;48.174;11.566;2023-03-18T03:13:46;95357.00;;;9.64;60.12
25420;BME280;13354;48.174;11.566;2023-03-18T03:16:12;95361.44;;;9.57;60.33
25420;BME280;13354;48.174;11.566;2023-03-18T03:18:38;95362.47;;;9.56;60.64
25420;BME280;13354;48.174;11.566;2023-03-18T03:21:03;95365.44;;;9.46;60.97
25420;BME280;13354;48.174;11.566;2023-03-18T03:23:29;95366.88;;;9.49;60.75
25420;BME280;13354;48.174;11.566;2023-03-18T03:25:55;95365.19;;;9.41;60.97
25420;BME280;13354;48.174;11.566;2023-03-18T03:28:21;95366.22;;;9.40;61.10
25420;BME280;13354;48.174;11.566;2023-03-18T03:30:46;95370.34;;;9.49;60.82
25420;BME280;13354;48.174;11.566;2023-03-18T03:33:11;95372.22;;;9.55;60.33
25420;BME280;13354;48.174;11.566;2023-03-18T03:35:37;95377.13;;;9.58;60.10
25420;BME280;13354;48.174;11.566;2023-03-18T03:38:03;95377.56;;;9.62;59.83
25420;BME280;13354;48.174;11.566;2023-03-18T03:40:28;95379.75;;;9.58;59.95
25420;BME280;13354;48.174;11.566;2023-03-18T03:42:53;95382.47;;;9.65;59.78
25420;BME280;13354;48.174;11.566;2023-03-18T03:45:18;95381.50;;;9.73;59.38
25420;BME280;13354;48.174;11.566;2023-03-18T03:47:44;95378.38;;;9.62;59.21
25420;BME280;13354;48.174;11.566;2023-03-18T03:50:12;95385.28;;;9.63;59.59
25420;BME280;13354;48.174;11.566;2023-03-18T03:52:38;95380.41;;;9.67;59.25
25420;BME280;13354;48.174;11.566;2023-03-18T03:55:04;95374.91;;;9.62;59.05
25420;BME280;13354;48.174;11.566;2023-03-18T03:57:30;95382.47;;;9.65;58.97
25420;BME280;13354;48.174;11.566;2023-03-18T03:59:55;95390.81;;;9.68;59.16
25420;BME280;13354;48.174;11.566;2023-03-18T04:02:20;95392.25;;;9.71;59.21
25420;BME280;13354;48.174;11.566;2023-03-18T04:04:48;95391.44;;;9.71;59.14
25420;BME280;13354;48.174;11.566;2023-03-18T04:07:13;95395.53;;;9.73;58.94
25420;BME280;13354;48.174;11.566;2023-03-18T04:09:39;95396.66;;;9.64;59.49
25420;BME280;13354;48.174;11.566;2023-03-18T04:12:05;95400.13;;;9.64;59.77
25420;BME280;13354;48.174;11.566;2023-03-18T04:14:30;95405.06;;;9.74;59.30
25420;BME280;13354;48.174;11.566;2023-03-18T04:16:55;95399.56;;;9.69;59.35
25420;BME280;13354;48.174;11.566;2023-03-18T04:19:22;95396.72;;;9.71;59.45
25420;BME280;13354;48.174;11.566;2023-03-18T04:21:48;95400.22;;;9.78;58.96
25420;BME280;13354;48.174;11.566;2023-03-18T04:24:13;95399.41;;;9.77;58.64
25420;BME280;13354;48.174;11.566;2023-03-18T04:26:38;95404.09;;;9.82;58.50
25420;BME280;13354;48.174;11.566;2023-03-18T04:29:03;95396.44;;;9.93;57.65
25420;BME280;13354;48.174;11.566;2023-03-18T04:31:28;95401.94;;;9.92;57.51
25420;BME280;13354;48.174;11.566;2023-03-18T04:33:54;95397.31;;;10.01;57.12
25420;BME280;13354;48.174;11.566;2023-03-18T04:36:19;95402.03;;;10.05;56.83
25420;BME280;13354;48.174;11.566;2023-03-18T04:38:44;95397.69;;;9.98;57.18
25420;BME280;13354;48.174;11.566;2023-03-18T04:41:10;95399.56;;;10.04;56.72
25420;BME280;13354;48.174;11.566;2023-03-18T04:43:35;95401.34;;;9.97;57.05
25420;BME280;13354;48.174;11.566;2023-03-18T04:46:00;95404.38;;;9.93;57.21
25420;BME280;13354;48.174;11.566;2023-03-18T04:48:25;95406.84;;;9.95;57.03
25420;BME280;13354;48.174;11.566;2023-03-18T04:50:51;95408.03;;;9.92;57.08
25420;BME280;13354;48.174;11.566;2023-03-18T04:53:16;95411.44;;;9.80;57.54
25420;BME280;13354;48.174;11.566;2023-03-18T04:55:41;95411.94;;;9.97;57.02
25420;BME280;13354;48.174;11.566;2023-03-18T04:58:08;95400.97;;;10.00;56.65
25420;BME280;13354;48.174;11.566;2023-03-18T05:00:33;95406.16;;;9.80;57.68
25420;BME280;13354;48.174;11.566;2023-03-18T05:02:59;95407.72;;;9.74;57.94
25420;BME280;13354;48.174;11.566;2023-03-18T05:05:25;95406.31;;;9.78;57.70
25420;BME280;13354;48.174;11.566;2023-03-18T05:07:50;95407.38;;;9.84;57.41
25420;BME280;13354;48.174;11.566;2023-03-18T05:10:16;95398.66;;;9.90;57.49
25420;BME280;13354;48.174;11.566;2023-03-18T05:12:41;95403.50;;;9.86;57.91
25420;BME280;13354;48.174;11.566;2023-03-18T05:15:07;95397.69;;;9.98;57.11
25420;BME280;13354;48.174;11.566;2023-03-18T05:17:32;95403.00;;;10.04;56.79
25420;BME280;13354;48.174;11.566;2023-03-18T05:19:58;95400.31;;;9.98;57.03
25420;BME280;13354;48.174;11.566;2023-03-18T05:22:23;95403.78;;;9.91;57.30
25420;BME280;13354;48.174;11.566;2023-03-18T05:24:48;95413.31;;;9.92;56.92
25420;BME280;13354;48.174;11.566;2023-03-18T05:27:14;95405.81;;;9.96;56.75
25420;BME280;13354;48.174;11.566;2023-03-18T05:29:40;95409.00;;;9.85;57.25
25420;BME280;13354;48.174;11.566;2023-03-18T05:32:06;95410.47;;;9.94;56.88
25420;BME280;13354;48.174;11.566;2023-03-18T05:34:32;95412.94;;;9.96;56.77
25420;BME280;13354;48.174;11.566;2023-03-18T05:36:57;95412.63;;;9.77;57.42
25420;BME280;13354;48.174;11.566;2023-03-18T05:39:23;95411.13;;;9.68;57.52
25420;BME280;13354;48.174;11.566;2023-03-18T05:41:48;95409.31;;;9.68;57.68
25420;BME280;13354;48.174;11.566;2023-03-18T05:44:13;95412.00;;;9.75;57.52
25420;BME280;13354;48.174;11.566;2023-03-18T05:46:38;95414.63;;;9.75;57.38
25420;BME280;13354;48.174;11.566;2023-03-18T05:49:03;95418.69;;;9.71;57.54
25420;BME280;13354;48.174;11.566;2023-03-18T05:51:29;95417.28;;;9.75;57.31
25420;BME280;13354;48.174;11.566;2023-03-18T05:53:54;95420.19;;;9.80;57.64
25420;BME280;13354;48.174;11.566;2023-03-18T05:56:20;95417.84;;;9.71;57.59
25420;BME280;13354;48.174;11.566;2023-03-18T05:58:45;95428.44;;;9.71;57.61
25420;BME280;13354;48.174;11.566;2023-03-18T06:01:11;95428.06;;;9.74;57.70
25420;BME280;13354;48.174;11.566;2023-03-18T06:03:38;95427.03;;;9.75;57.41
25420;BME280;13354;48.174;11.566;2023-03-18T06:06:03;95430.38;;;9.83;57.06
25420;BME280;13354;48.174;11.566;2023-03-18T06:08:28;95432.44;;;9.88;56.76
25420;BME280;13354;48.174;11.566;2023-03-18T06:10:53;95429.78;;;9.88;56.80
25420;BME280;13354;48.174;11.566;2023-03-18T06:13:19;95427.75;;;9.90;56.46
25420;BME280;13354;48.174;11.566;2023-03-18T06:15:44;95431.22;;;9.90;56.75
25420;BME280;13354;48.174;11.566;2023-03-18T06:18:11;95426.59;;;9.99;56.33
25420;BME280;13354;48.174;11.566;2023-03-18T06:20:36;95427.19;;;9.95;56.41
25420;BME280;13354;48.174;11.566;2023-03-18T06:23:01;95433.09;;;9.97;56.82
25420;BME280;13354;48.174;11.566;2023-03-18T06:25:27;95429.56;;;9.89;57.03
25420;BME280;13354;48.174;11.566;2023-03-18T06:27:53;95433.50;;;10.00;56.75
25420;BME280;13354;48.174;11.566;2023-03-18T06:30:18;95435.66;;;10.18;55.94
25420;BME280;13354;48.174;11.566;2023-03-18T06:32:43;95436.34;;;10.27;56.08
25420;BME280;13354;48.174;11.566;2023-03-18T06:35:10;95426.53;;;10.21;55.75
25420;BME280;13354;48.174;11.566;2023-03-18T06:37:36;95429.84;;;10.29;55.92
25420;BME280;13354;48.174;11.566;2023-03-18T06:40:02;95428.41;;;10.27;56.33
25420;BME280;13354;48.174;11.566;2023-03-18T06:42:27;95435.34;;;10.28;56.35
25420;BME280;13354;48.174;11.566;2023-03-18T06:44:52;95431.94;;;10.40;55.72
25420;BME280;13354;48.174;11.566;2023-03-18T06:47:19;95430.13;;;10.48;55.50
25420;BME280;13354;48.174;11.566;2023-03-18T06:49:45;95435.84;;;10.51;55.28
25420;BME280;13354;48.174;11.566;2023-03-18T06:52:12;95439.09;;;10.47;55.24
25420;BME280;13354;48.174;11.566;2023-03-18T06:54:38;95435.03;;;10.51;55.53
25420;BME280;13354;48.174;11.566;2023-03-18T06:57:04;95433.47;;;10.70;54.68
25420;BME280;13354;48.174;11.566;2023-03-18T06:59:30;95433.84;;;10.60;55.01
25420;BME280;13354;48.174;11.566;2023-03-18T07:01:55;95443.66;;;10.66;55.26
25420;BME280;13354;48.174;11.566;2023-03-18T07:04:20;95442.97;;;10.51;55.42
25420;BME280;13354;48.174;11.566;2023-03-18T07:06:47;95444.81;;;10.50;56.25
25420;BME280;13354;48.174;11.566;2023-03-18T07:09:12;95449.53;;;10.61;56.01
25420;BME280;13354;48.174;11.566;2023-03-18T07:11:39;95442.66;;;10.74;54.96
25420;BME280;13354;48.174;11.566;2023-03-18T07:14:04;95437.81;;;10.84;54.49
25420;BME280;13354;48.174;11.566;2023-03-18T07:16:29;95433.34;;;10.91;54.20
25420;BME280;13354;48.174;11.566;2023-03-18T07:18:55;95435.75;;;10.86;54.55
25420;BME280;13354;48.174;11.566;2023-03-18T07:21:22;95435.81;;;10.99;54.14
25420;BME280;13354;48.174;11.566;2023-03-18T07:23:48;95439.31;;;11.13;54.38
25420;BME280;13354;48.174;11.566;2023-03-18T07:26:13;95442.59;;;11.28;53.95
25420;BME280;13354;48.174;11.566;2023-03-18T07:28:39;95445.44;;;11.20;53.92
25420;BME280;13354;48.174;11.566;2023-03-18T07:31:04;95455.22;;;11.33;53.28
25420;BME280;13354;48.174;11.566;2023-03-18T07:33:30;95449.91;;;11.26;53.50
25420;BME280;13354;48.174;11.566;2023-03-18T07:35:55;95448.09;;;11.27;54.01
25420;BME280;13354;48.174;11.566;2023-03-18T07:38:20;95448.31;;;11.39;53.70
25420;BME280;13354;48.174;11.566;2023-03-18T07:40:45;95450.34;;;11.36;53.84
25420;BME280;13354;48.174;11.566;2023-03-18T07:43:11;95451.75;;;11.52;53.33
25420;BME280;13354;48.174;11.566;2023-03-18T07:45:36;95447.09;;;11.74;52.99
25420;BME280;13354;48.174;11.566;2023-03-18T07:48:02;95448.94;;;11.60;53.39
25420;BME280;13354;48.174;11.566;2023-03-18T07:50:27;95446.31;;;11.87;52.39
25420;BME280;13354;48.174;11.566;2023-03-18T07:52:52;95454.25;;;12.00;51.87
25420;BME280;13354;48.174;11.566;2023-03-18T07:55:17;95456.69;;;12.15;51.66
25420;BME280;13354;48.174;11.566;2023-03-18T07:57:43;95463.16;;;12.26;51.41
25420;BME280;13354;48.174;11.566;2023-03-18T08:00:09;95459.34;;;12.15;51.27
25420;BME280;13354;48.174;11.566;2023-03-18T08:02:35;95462.19;;;12.07;51.60
25420;BME280;13354;48.174;11.566;2023-03-18T08:05:01;95459.75;;;12.05;51.54
25420;BME280;13354;48.174;11.566;2023-03-18T08:07:27;95463.22;;;11.99;52.38
25420;BME280;13354;48.174;11.566;2023-03-18T08:09:52;95460.75;;;12.11;51.71
25420;BME280;13354;48.174;11.566;2023-03-18T08:12:17;95459.75;;;12.12;51.34
25420;BME280;13354;48.174;11.566;2023-03-18T08:14:42;95461.13;;;12.28;50.66
25420;BME280;13354;48.174;11.566;2023-03-18T08:17:08;95463.38;;;12.31;50.06
25420;BME280;13354;48.174;11.566;2023-03-18T08:19:33;95456.78;;;12.53;49.22
25420;BME280;13354;48.174;11.566;2023-03-18T08:21:59;95463.69;;;12.61;49.86
25420;BME280;13354;48.174;11.566;2023-03-18T08:24:25;95458.16;;;12.69;49.50
25420;BME280;13354;48.174;11.566;2023-03-18T08:26:50;95464.09;;;12.65;49.80
25420;BME280;13354;48.174;11.566;2023-03-18T08:29:15;95465.47;;;12.80;49.25
25420;BME280;13354;48.174;11.566;2023-03-18T08:31:41;95469.13;;;12.86;48.84
25420;BME280;13354;48.174;11.566;2023-03-18T08:34:06;95470.09;;;12.98;48.67
25420;BME280;13354;48.174;11.566;2023-03-18T08:36:32;95457.38;;;13.07;48.35
25420;BME280;13354;48.174;11.566;2023-03-18T08:38:57;95462.63;;;13.20;47.49
25420;BME280;13354;48.174;11.566;2023-03-18T08:41:23;95459.28;;;13.38;47.07
25420;BME280;13354;48.174;11.566;2023-03-18T08:43:49;95454.38;;;13.35;47.43
25420;BME280;13354;48.174;11.566;2023-03-18T08:46:16;95452.78;;;13.59;45.67
25420;BME280;13354;48.174;11.566;2023-03-18T08:48:42;95452.50;;;13.67;45.61
25420;BME280;13354;48.174;11.566;2023-03-18T08:51:07;95457.41;;;13.70;46.20
25420;BME280;13354;48.174;11.566;2023-03-18T08:53:33;95455.44;;;13.84;45.72
25420;BME280;13354;48.174;11.566;2023-03-18T08:55:59;95452.34;;;13.87;45.23
25420;BME280;13354;48.174;11.566;2023-03-18T08:58:26;95450.16;;;14.02;45.21
25420;BME280;13354;48.174;11.566;2023-03-18T09:00:53;95445.59;;;14.53;43.92
25420;BME280;13354;48.174;11.566;2023-03-18T09:03:18;95451.97;;;14.52;43.71
25420;BME280;13354;48.174;11.566;2023-03-18T09:05:46;95452.53;;;14.72;43.75
25420;BME280;13354;48.174;11.566;2023-03-18T09:08:11;95449.97;;;14.84;43.72
25420;BME280;13354;48.174;11.566;2023-03-18T09:10:37;95445.53;;;15.08;43.27
25420;BME280;13354;48.174;11.566;2023-03-18T09:13:02;95447.44;;;15.19;42.85
25420;BME280;13354;48.174;11.566;2023-03-18T09:15:29;95452.03;;;15.12;43.32
25420;BME280;13354;48.174;11.566;2023-03-18T09:17:55;95453.59;;;15.50;42.54
25420;BME280;13354;48.174;11.566;2023-03-18T09:20:20;95444.38;;;15.76;42.40
25420;BME280;13354;48.174;11.566;2023-03-18T09:22:46;95445.75;;;15.67;42.32
25420;BME280;13354;48.174;11.566;2023-03-18T09:25:11;95441.72;;;15.88;42.10
25420;BME280;13354;48.174;11.566;2023-03-18T09:27:37;95442.63;;;15.93;41.69
25420;BME280;13354;48.174;11.566;2023-03-18T09:30:03;95446.50;;;16.09;40.97
25420;BME280;13354;48.174;11.566;2023-03-18T09:32:28;95454.72;;;16.43;40.88
25420;BME280;13354;48.174;11.566;2023-03-18T09:34:54;95448.88;;;16.81;39.97
25420;BME280;13354;48.174;11.566;2023-03-18T09:37:19;95447.66;;;17.01;40.55
25420;BME280;13354;48.174;11.566;2023-03-18T09:39:45;95444.41;;;16.99;40.33
25420;BME280;13354;48.174;11.566;2023-03-18T09:44:47;95444.16;;;17.57;38.35
25420;BME280;13354;48.174;11.566;2023-03-18T09:47:41;95446.84;;;17.57;39.12
25420;BME280;13354;48.174;11.566;2023-03-18T09:52:44;95445.25;;;17.28;39.50
25420;BME280;13354;48.174;11.566;2023-03-18T09:55:23;95447.19;;;17.32;39.37
25420;BME280;13354;48.174;11.566;2023-03-18T09:57:50;95442.09;;;17.48;38.01
25420;BME280;13354;48.174;11.566;2023-03-18T10:00:28;95437.88;;;17.80;37.95
25420;BME280;13354;48.174;11.566;2023-03-18T10:02:55;95437.06;;;17.97;37.66
25420;BME280;13354;48.174;11.566;2023-03-18T10:05:24;95451.59;;;18.01;38.29
25420;BME280;13354;48.174;11.566;2023-03-18T10:07:53;95438.34;;;18.28;37.27
25420;BME280;13354;48.174;11.566;2023-03-18T10:12:47;95447.75;;;18.86;36.88
25420;BME280;13354;48.174;11.566;2023-03-18T10:15:16;95441.41;;;19.19;36.04
25420;BME280;13354;48.174;11.566;2023-03-18T10:20:15;95446.22;;;19.66;33.40
25420;BME280;13354;48.174;11.566;2023-03-18T10:25:39;95441.59;;;19.89;33.42
25420;BME280;13354;48.174;11.566;2023-03-18T10:36:18;95437.22;;;20.52;32.40
25420;BME280;13354;48.174;11.566;2023-03-18T10:38:47;95435.63;;;20.56;31.95
25420;BME280;13354;48.174;11.566;2023-03-18T10:41:14;95433.28;;;20.75;31.56
25420;BME280;13354;48.174;11.566;2023-03-18T10:43:41;95441.28;;;20.60;32.14
25420;BME280;13354;48.174;11.566;2023-03-18T10:46:07;95431.78;;;20.99;32.21
25420;BME280;13354;48.174;11.566;2023-03-18T10:48:37;95431.41;;;20.70;31.08
25420;BME280;13354;48.174;11.566;2023-03-18T10:51:09;95421.72;;;20.74;31.38
25420;BME280;13354;48.174;11.566;2023-03-18T10:53:39;95417.16;;;20.70;32.08
25420;BME280;13354;48.174;11.566;2023-03-18T10:56:08;95426.22;;;20.59;30.98
25420;BME280;13354;48.174;11.566;2023-03-18T10:58:34;95415.25;;;20.70;30.90
25420;BME280;13354;48.174;11.566;2023-03-18T11:01:01;95415.94;;;21.13;30.68
25420;BME280;13354;48.174;11.566;2023-03-18T11:05:59;95404.59;;;20.96;29.83
25420;BME280;13354;48.174;11.566;2023-03-18T11:08:29;95402.97;;;20.90;31.15
25420;BME280;13354;48.174;11.566;2023-03-18T11:10:58;95403.88;;;21.21;31.49
25420;BME280;13354;48.174;11.566;2023-03-18T11:13:26;95405.41;;;21.02;30.25
25420;BME280;13354;48.174;11.566;2023-03-18T11:15:51;95403.34;;;21.29;30.44
25420;BME280;13354;48.174;11.566;2023-03-18T11:18:20;95397.47;;;21.37;29.89
25420;BME280;13354;48.174;11.566;2023-03-18T11:20:46;95392.84;;;21.33;30.11
25420;BME280;13354;48.174;11.566;2023-03-18T11:23:14;95379.19;;;21.70;29.75
25420;BME280;13354;48.174;11.566;2023-03-18T11:25:44;95373.81;;;21.80;30.14
25420;BME280;13354;48.174;11.566;2023-03-18T11:28:17;95365.69;;;22.26;29.35
25420;BME280;13354;48.174;11.566;2023-03-18T11:30:44;95368.06;;;22.38;30.01
25420;BME280;13354;48.174;11.566;2023-03-18T11:38:15;95367.38;;;22.82;28.62
25420;BME280;13354;48.174;11.566;2023-03-18T11:40:41;95369.06;;;22.73;29.20
25420;BME280;13354;48.174;11.566;2023-03-18T11:43:18;95358.25;;;22.73;28.09
25420;BME280;13354;48.174;11.566;2023-03-18T11:48:16;95348.94;;;23.09;28.97
25420;BME280;13354;48.174;11.566;2023-03-18T11:56:14;95334.69;;;22.94;28.82
25420;BME280;13354;48.174;11.566;2023-03-18T12:04:09;95323.78;;;23.14;28.07
25420;BME280;13354;48.174;11.566;2023-03-18T12:12:05;95320.63;;;23.02;29.81
25420;BME280;13354;48.174;11.566;2023-03-18T12:17:24;95321.03;;;23.19;29.02
25420;BME280;13354;48.174;11.566;2023-03-18T12:27:50;95330.94;;;24.02;27.96
25420;BME280;13354;48.174;11.566;2023-03-18T12:30:29;95325.44;;;24.13;27.72
25420;BME280;13354;48.174;11.566;2023-03-18T12:45:46;95314.41;;;25.57;25.83
25420;BME280;13354;48.174;11.566;2023-03-18T12:48:16;95306.53;;;25.41;26.14
25420;BME280;13354;48.174;11.566;2023-03-18T12:50:50;95311.56;;;25.48;25.79
25420;BME280;13354;48.174;11.566;2023-03-18T12:53:28;95301.50;;;25.67;26.06
25420;BME280;13354;48.174;11.566;2023-03-18T12:56:06;95302.25;;;25.54;26.56
25420;BME280;13354;48.174;11.566;2023-03-18T12:58:40;95305.69;;;25.78;25.33
25420;BME280;13354;48.174;11.566;2023-03-18T13:01:10;95312.81;;;25.56;24.83
25420;BME280;13354;48.174;11.566;2023-03-18T13:03:42;95311.06;;;25.46;24.93
25420;BME280;13354;48.174;11.566;2023-03-18T13:06:14;95311.16;;;25.41;25.12
25420;BME280;13354;48.174;11.566;2023-03-18T13:11:20;95312.16;;;25.45;25.10
25420;BME280;13354;48.174;11.566;2023-03-18T13:13:50;95309.28;;;25.55;25.66
25420;BME280;13354;48.174;11.566;2023-03-18T13:16:17;95304.59;;;25.61;24.64
25420;BME280;13354;48.174;11.566;2023-03-18T13:18:43;95312.09;;;25.31;25.22
25420;BME280;13354;48.174;11.566;2023-03-18T13:21:14;95306.25;;;25.24;25.59
25420;BME280;13354;48.174;11.566;2023-03-18T13:23:51;95302.75;;;24.99;25.69
25420;BME280;13354;48.174;11.566;2023-03-18T13:39:01;95286.09;;;25.11;25.67
25420;BME280;13354;48.174;11.566;2023-03-18T13:44:16;95280.16;;;24.71;24.94
25420;BME280;13354;48.174;11.566;2023-03-18T13:46:45;95282.09;;;24.18;25.71
25420;BME280;13354;48.174;11.566;2023-03-18T13:49:17;95285.56;;;24.23;26.39
25420;BME280;13354;48.174;11.566;2023-03-18T13:51:54;95287.91;;;24.06;26.87
25420;BME280;13354;48.174;11.566;2023-03-18T13:54:20;95287.78;;;23.92;26.77
25420;BME280;13354;48.174;11.566;2023-03-18T13:56:50;95276.47;;;23.90;26.86
25420;BME280;13354;48.174;11.566;2023-03-18T14:01:57;95264.31;;;23.24;26.96
25420;BME280;13354;48.174;11.566;2023-03-18T14:04:30;95268.53;;;23.35;27.14
25420;BME280;13354;48.174;11.566;2023-03-18T14:07:10;95256.56;;;23.12;27.12
25420;BME280;13354;48.174;11.566;2023-03-18T14:12:21;95265.00;;;23.01;29.03
25420;BME280;13354;48.174;11.566;2023-03-18T14:17:14;95247.69;;;23.07;28.32
25420;BME280;13354;48.174;11.566;2023-03-18T14:19:40;95244.00;;;23.27;28.88
25420;BME280;13354;48.174;11.566;2023-03-18T14:22:07;95244.97;;;23.41;28.74
25420;BME280;13354;48.174;11.566;2023-03-18T14:24:37;95244.94;;;23.17;28.33
25420;BME280;13354;48.174;11.566;2023-03-18T14:29:36;95241.06;;;22.84;28.05
25420;BME280;13354;48.174;11.566;2023-03-18T14:32:02;95239.66;;;23.02;28.68